Latest Weather Observations for Kingscote

IDS60801

Issued at 11:31 pm CST Sunday 15 September 2019 (issued every 10 minutes, with the page automatically refreshed every 10 minutes)

About weather observations | Map of weather stations | Latest weather observations for SA | Other Formats
Station Details ID: 022841 Name: KINGSCOTE AERO Lat: -35.71 Lon: 137.52 Height: 6.23 m
Data from the previous 72 hours. | See also: Recent months at Kingscote
Date/Time
CST
Temp
°C
App
Temp
°C
Dew
Point
°C
Rel
Hum
%
Delta-T
°C
Wind Press
QNH
hPa
Press
MSL
hPa
Rain since
9am
mm
Dir  Spd
km/h
Gust
km/h
Spd
kts
Gust
kts
15/11:30pm 10.9 7.1 7.4 79 1.7 S 17 26 9 14 1019.7 1019.7 0.2
15/11:00pm 10.9 6.9 6.8 76 1.9 SSW 17 22 9 12 1020.3 1020.3 0.2
15/10:30pm 11.3 8.4 8.3 82 1.5 S 13 19 7 10 1020.1 1020.1 0.2
15/10:00pm 11.5 7.5 8.9 84 1.3 SSW 20 26 11 14 1019.9 1019.9 0.2
15/09:30pm 11.9 9.2 8.9 82 1.5 SW 13 22 7 12 1020.2 1020.2 0.2
15/09:21pm 12.2 8.2 9.0 81 1.6 SSW 20 30 11 16 1020.9 1020.9 0.2
15/09:00pm 12.2 8.6 9.9 86 1.2 SSE 19 30 10 16 1018.7 1018.7 0.0
15/08:52pm 12.4 9.6 10.0 85 1.2 SSE 15 24 8 13 1018.9 1018.9 0.0
15/08:30pm 12.7 10.5 10.9 89 0.9 SSW 13 24 7 13 1020.0 1020.0 0.0
15/08:00pm 12.9 10.6 11.8 93 0.6 S 15 22 8 12 1019.8 1019.8 0.0
15/07:38pm 12.9 8.6 12.0 94 0.5 S 26 35 14 19 1019.3 1019.3 0.0
15/07:30pm 13.3 9.5 12.5 95 0.4 SSW 24 33 13 18 1019.7 1019.7 0.0
15/07:26pm 13.4 9.3 12.6 95 0.4 SSW 26 32 14 17 1019.9 1019.9 0.0
15/07:00pm 13.8 10.2 13.0 95 0.4 S 24 35 13 19 1018.8 1018.8 0.0
15/06:40pm 14.0 10.1 13.2 95 0.4 SSW 26 35 14 19 1018.6 1018.6 0.0
15/06:30pm 14.1 10.5 13.1 94 0.5 SSW 24 35 13 19 1018.5 1018.5 0.0
15/06:29pm 14.2 11.0 13.2 94 0.6 SSW 22 35 12 19 1018.5 1018.5 0.0
15/06:13pm 14.6 11.4 13.1 91 0.8 SSW 22 35 12 19 1018.3 1018.3 0.0
15/06:00pm 14.8 12.5 13.0 89 1.0 SSW 17 24 9 13 1017.9 1017.9 0.0
15/05:30pm 15.1 11.8 12.8 86 1.3 SSW 22 30 12 16 1017.4 1017.4 0.0
15/05:00pm 16.8 13.1 12.7 77 2.3 S 24 32 13 17 1016.4 1016.4 0.0
15/04:30pm 17.7 15.3 12.8 73 2.7 SW 17 24 9 13 1016.4 1016.4 0.0
15/04:00pm 17.5 15.2 13.0 75 2.5 SSW 17 24 9 13 1016.1 1016.1 0.0
15/03:30pm 16.7 13.4 12.8 78 2.2 SSW 22 32 12 17 1016.3 1016.3 0.0
15/03:00pm 16.8 12.8 13.1 79 2.1 SSW 26 33 14 18 1017.2 1017.2 0.0
15/02:30pm 17.1 14.4 12.8 76 2.4 S 19 35 10 19 1015.9 1015.9 0.0
15/02:28pm 17.2 14.4 13.1 77 2.3 S 20 35 11 19 1015.8 1015.8 0.0
15/02:00pm 22.2 21.5 14.3 61 4.6 WNW 11 13 6 7 1016.5 1016.5 0.0
15/01:30pm 21.2 20.1 13.1 60 4.6 N 11 15 6 8 1015.9 1015.9 0.0
15/01:00pm 20.8 19.4 13.5 63 4.2 N 13 19 7 10 1016.1 1016.1 0.0
15/12:30pm 20.0 18.4 12.7 63 4.1 N 13 17 7 9 1016.5 1016.5 0.0
15/12:00pm 19.4 19.5 13.8 70 3.2 NNE 6 11 3 6 1017.0 1017.0 0.0
15/11:30am 18.2 16.3 12.9 71 3.0 NNE 15 19 8 10 1016.8 1016.8 0.0
15/11:00am 18.6 16.3 13.0 70 3.2 N 17 24 9 13 1016.6 1016.6 0.0
15/10:30am 20.2 18.0 13.2 64 4.0 NE 17 20 9 11 1016.9 1016.9 0.0
15/10:00am 18.9 17.9 13.5 71 3.1 N 11 15 6 8 1018.2 1018.2 0.0
15/09:30am 17.5 17.4 13.8 79 2.1 N 7 9 4 5 1018.4 1018.4 0.0
15/09:00am 16.9 16.3 13.4 80 2.0 NNE 9 13 5 7 1018.6 1018.6 0.0
15/08:30am 15.5 15.3 13.0 85 1.4 NW 6 7 3 4 1019.2 1019.2 0.0
15/08:00am 14.9 15.7 12.6 86 1.3 CALM 0 0 0 0 1019.0 1019.0 0.0
15/07:30am 15.1 15.8 12.1 82 1.6 CALM 0 0 0 0 1018.1 1018.1 0.0
15/07:00am 13.4 12.5 11.3 87 1.1 NE 7 9 4 5 1017.7 1017.7 0.0
15/06:30am 13.4 11.8 11.5 88 1.0 S 11 19 6 10 1017.9 1017.9 0.0
15/06:00am 12.7 11.1 10.2 85 1.3 SSE 9 11 5 6 1017.1 1017.1 0.0
15/05:30am 13.7 12.7 10.3 80 1.8 SE 6 7 3 4 1016.8 1016.8 0.0
15/05:00am 15.0 12.8 10.8 76 2.2 NNE 13 17 7 9 1016.5 1016.5 0.0
15/04:30am 13.5 11.9 10.3 81 1.7 NNE 9 13 5 7 1016.9 1016.9 0.0
15/04:00am 13.5 13.5 9.7 78 1.9 CALM 0 0 0 0 1017.0 1017.0 0.0
15/03:30am 14.7 14.8 10.1 74 2.4 CALM 0 6 0 3 1017.1 1017.1 0.0
15/03:00am 14.9 13.6 10.1 73 2.5 SW 7 15 4 8 1017.1 1017.1 0.0
15/02:30am 15.3 10.8 11.5 78 2.0 S 26 30 14 16 1016.9 1016.9 0.0
15/02:00am 16.8 16.6 10.6 67 3.3 NNE 2 9 1 5 1016.3 1016.3 0.0
15/01:30am 16.9 15.9 11.0 68 3.2 NNE 7 11 4 6 1016.8 1016.8 0.0
15/01:00am 16.7 16.3 11.0 69 3.1 NNE 4 9 2 5 1017.5 1017.5 0.0
15/12:30am 15.5 14.9 11.7 78 2.0 SSW 6 9 3 5 1018.3 1018.3 0.0
15/12:00am 17.5 16.2 11.3 67 3.4 NNE 9 13 5 7 1018.3 1018.3 0.0
 
Date/Time
CST
Temp
°C
App
Temp
°C
Dew
Point
°C
Rel
Hum
%
Delta-T
°C
Wind Press
QNH
hPa
Press
MSL
hPa
Rain since
9am
mm
Dir  Spd
km/h
Gust
km/h
Spd
kts
Gust
kts
14/11:30pm 14.5 15.1 12.0 85 1.3 CALM 0 0 0 0 1018.9 1018.9 0.0
14/11:00pm 14.4 14.9 11.7 84 1.4 CALM 0 0 0 0 1019.5 1019.5 0.0
14/10:30pm 14.7 15.3 11.8 83 1.6 CALM 0 0 0 0 1020.0 1020.0 0.0
14/10:00pm 15.4 16.0 11.8 79 1.9 CALM 0 0 0 0 1020.0 1020.0 0.0
14/09:30pm 14.4 15.1 12.1 86 1.2 CALM 0 0 0 0 1020.6 1020.6 0.0
14/09:00pm 13.7 14.1 11.4 86 1.2 CALM 0 0 0 0 1020.9 1020.9 0.0
14/08:30pm 14.5 15.1 11.8 84 1.4 CALM 0 0 0 0 1021.0 1021.0 0.0
14/08:00pm 15.0 15.5 11.6 80 1.8 CALM 0 0 0 0 1021.0 1021.0 0.0
14/07:30pm 15.0 14.4 11.6 80 1.8 NNE 6 9 3 5 1021.1 1021.1 0.0
14/07:00pm 15.0 14.6 12.3 84 1.5 NE 6 13 3 7 1021.1 1021.1 0.0
14/06:30pm 15.0 14.1 12.5 85 1.4 ENE 9 13 5 7 1021.1 1021.1 0.0
14/06:00pm 14.9 13.9 12.4 85 1.4 E 9 11 5 6 1021.5 1021.5 0.0
14/05:30pm 15.3 13.6 12.6 84 1.5 E 13 15 7 8 1021.6 1021.6 0.0
14/05:00pm 16.9 15.0 13.0 78 2.2 E 15 17 8 9 1021.7 1021.7 0.0
14/04:30pm 18.9 18.0 13.7 72 3.0 NNE 11 15 6 8 1021.8 1021.8 0.0
14/04:00pm 18.8 17.2 13.9 73 2.8 ENE 15 17 8 9 1022.0 1022.0 0.0
14/03:30pm 18.9 17.5 14.4 75 2.6 E 15 19 8 10 1022.5 1022.5 0.0
14/03:00pm 18.5 16.8 13.6 73 2.8 E 15 19 8 10 1022.7 1022.7 0.0
14/02:30pm 21.4 19.9 13.1 59 4.7 N 13 20 7 11 1022.8 1022.8 0.0
14/02:00pm 21.6 18.7 12.2 55 5.3 NNE 19 24 10 13 1022.7 1022.7 0.0
14/01:30pm 21.1 18.7 12.8 59 4.7 N 17 20 9 11 1023.3 1023.3 0.0
14/01:00pm 20.4 17.8 11.9 58 4.7 N 17 24 9 13 1023.5 1023.5 0.0
14/12:30pm 19.5 15.8 10.2 55 5.0 NNE 20 28 11 15 1023.6 1023.6 0.0
14/12:00pm 18.8 15.6 11.4 62 4.0 N 19 24 10 13 1024.4 1024.4 0.0
14/11:30am 18.5 15.5 12.0 66 3.6 N 19 28 10 15 1024.8 1024.8 0.0
14/11:00am 18.2 15.0 11.3 64 3.8 N 19 26 10 14 1024.9 1024.9 0.0
14/10:30am 18.0 15.6 12.7 71 2.9 N 17 26 9 14 1025.3 1025.3 0.0
14/10:00am 16.6 14.9 12.6 77 2.2 NNE 13 19 7 10 1025.8 1025.8 0.0
14/09:30am 15.6 13.7 13.1 85 1.4 N 15 20 8 11 1025.8 1025.8 0.0
14/09:00am 14.2 11.5 12.8 91 0.8 NNE 19 22 10 12 1025.8 1025.8 0.0
14/08:30am 12.8 13.5 12.3 97 0.3 CALM 0 0 0 0 1026.1 1026.1 0.0
14/08:28am 12.2 12.7 11.7 97 0.3 CALM 0 0 0 0 1026.1 1026.1 0.0
14/08:21am 11.8 12.2 11.3 97 0.3 CALM 0 0 0 0 1025.8 1025.8 0.0
14/08:00am 10.0 10.0 9.7 98 0.2 CALM 0 0 0 0 1026.0 1026.0 0.0
14/07:30am 7.6 7.0 7.2 97 0.2 CALM 0 0 0 0 1026.1 1026.1 0.0
14/07:00am 6.2 5.2 5.8 97 0.2 CALM 0 0 0 0 1026.2 1026.2 0.0
14/06:30am 5.8 4.7 5.2 96 0.3 CALM 0 0 0 0 1026.2 1026.2 0.0
14/06:00am 5.8 4.8 5.4 97 0.2 CALM 0 0 0 0 1026.3 1026.3 0.0
14/05:30am 5.3 4.1 4.7 96 0.3 CALM 0 0 0 0 1026.3 1026.3 0.0
14/05:00am 5.4 4.2 4.8 96 0.3 CALM 0 0 0 0 1026.4 1026.4 0.0
14/04:30am 5.1 3.9 4.5 96 0.3 CALM 0 0 0 0 1026.4 1026.4 0.0
14/04:00am 4.9 3.6 4.3 96 0.3 CALM 0 0 0 0 1026.4 1026.4 0.0
14/03:30am 4.9 3.6 4.3 96 0.3 CALM 0 0 0 0 1026.4 1026.4 0.0
14/03:00am 5.3 4.1 4.7 96 0.3 CALM 0 0 0 0 1026.7 1026.7 0.0
14/02:30am 5.3 4.1 4.6 95 0.3 CALM 0 0 0 0 1027.1 1027.1 0.0
14/02:00am 5.9 4.8 5.2 95 0.3 CALM 0 0 0 0 1027.4 1027.4 0.0
14/01:30am 6.3 5.3 5.6 95 0.3 CALM 0 0 0 0 1027.9 1027.9 0.0
14/01:00am 6.7 5.8 6.0 95 0.3 CALM 0 0 0 0 1028.2 1028.2 0.0
14/12:43am 6.6 4.3 5.9 95 0.3 W 7 9 4 5 1028.3 1028.3 0.0
14/12:30am 6.6 4.3 5.9 95 0.3 WSW 7 9 4 5 1028.2 1028.2 0.0
14/12:00am 7.2 6.0 6.3 94 0.4 S 2 11 1 6 1028.4 1028.4 0.0
 
Date/Time
CST
Temp
°C
App
Temp
°C
Dew
Point
°C
Rel
Hum
%
Delta-T
°C
Wind Press
QNH
hPa
Press
MSL
hPa
Rain since
9am
mm
Dir  Spd
km/h
Gust
km/h
Spd
kts
Gust
kts
13/11:55pm 7.5 6.7 6.6 94 0.4 CALM 0 0 0 0 1028.3 1028.3 0.0
13/11:43pm 7.4 6.6 6.5 94 0.4 CALM 0 0 0 0 1028.4 1028.4 0.0
13/11:39pm 7.3 6.5 6.4 94 0.4 CALM 0 0 0 0 1028.4 1028.4 0.0
13/11:30pm 7.7 7.0 6.8 94 0.4 CALM 0 0 0 0 1028.4 1028.4 0.0
13/11:00pm 7.4 6.6 6.3 93 0.5 CALM 0 0 0 0 1028.5 1028.5 0.0
13/10:30pm 8.0 7.3 6.8 92 0.6 CALM 0 0 0 0 1028.4 1028.4 0.0
13/10:00pm 9.8 9.5 8.6 92 0.6 CALM 0 0 0 0 1028.4 1028.4 0.0
13/09:30pm 9.5 9.1 8.1 91 0.7 CALM 0 0 0 0 1028.4 1028.4 0.0
13/09:00pm 10.6 10.4 9.2 91 0.7 CALM 0 0 0 0 1028.3 1028.3 0.0
13/08:30pm 10.7 10.4 8.8 88 0.9 CALM 0 0 0 0 1028.3 1028.3 0.0
13/08:00pm 11.9 12.0 10.1 89 0.9 CALM 0 0 0 0 1028.2 1028.2 0.0
13/07:30pm 12.2 10.7 10.4 89 0.9 SSW 9 11 5 6 1028.0 1028.0 0.0
13/07:00pm 13.0 10.8 10.9 87 1.1 S 13 17 7 9 1027.6 1027.6 0.0
13/06:30pm 13.9 11.4 11.2 84 1.4 S 15 17 8 9 1027.4 1027.4 0.0
13/06:00pm 15.2 13.2 11.6 79 1.9 SSE 13 17 7 9 1027.2 1027.2 0.0
13/05:30pm 16.4 14.2 12.0 75 2.4 S 15 19 8 10 1027.0 1027.0 0.0
13/05:00pm 17.2 14.6 11.9 71 2.9 S 17 19 9 10 1026.7 1026.7 0.0
13/04:30pm 17.6 14.2 10.7 64 3.7 S 19 24 10 13 1026.8 1026.8 0.0
13/04:00pm 18.6 14.4 9.9 57 4.6 SSW 22 28 12 15 1026.8 1026.8 0.0
13/03:30pm 19.5 14.5 9.7 53 5.2 S 26 32 14 17 1026.7 1026.7 0.0
13/03:00pm 20.4 14.9 9.3 49 5.9 SSW 28 33 15 18 1026.2 1026.2 0.0
13/02:30pm 22.3 17.3 8.1 40 7.4 SSW 24 32 13 17 1026.0 1026.0 0.0
13/02:00pm 21.0 20.2 12.9 60 4.6 E 9 17 5 9 1025.9 1025.9 0.0
13/01:30pm 20.7 19.9 12.9 61 4.4 ENE 9 15 5 8 1026.1 1026.1 0.0
13/01:00pm 20.3 19.9 12.3 60 4.5 NNW 6 11 3 6 1026.3 1026.3 0.0
13/12:30pm 19.0 17.4 11.6 62 4.0 NW 11 17 6 9 1026.5 1026.5 0.0
13/12:00pm 18.3 16.7 11.4 64 3.7 NNW 11 19 6 10 1026.4 1026.4 0.0
13/11:30am 17.6 15.6 10.0 61 4.0 NNW 11 20 6 11 1026.3 1026.3 0.0
13/11:00am 16.6 15.1 10.5 67 3.2 NNW 9 13 5 7 1026.9 1026.9 0.0
13/10:30am 16.1 14.8 11.1 72 2.7 WNW 9 19 5 10 1027.5 1027.5 0.0
13/10:05am 14.9 13.1 10.7 76 2.2 W 11 19 6 10 1027.3 1027.3 0.0
13/10:00am 14.8 12.3 11.0 78 2.0 W 15 20 8 11 1027.7 1027.7 0.0
13/09:30am 13.6 10.2 10.6 82 1.6 WSW 19 24 10 13 1028.0 1028.0 0.0
13/09:00am 14.5 13.3 11.5 82 1.6 WNW 9 20 5 11 1027.7 1027.7 0.0
13/08:30am 13.1 12.0 10.8 86 1.2 W 7 11 4 6 1027.2 1027.2 0.0
13/08:00am 12.5 11.0 10.7 89 0.9 SW 9 13 5 7 1027.0 1027.0 0.0
13/07:30am 12.1 11.1 11.0 93 0.6 NW 7 13 4 7 1026.6 1026.6 0.0
13/07:00am 11.3 11.5 10.5 95 0.4 CALM 0 0 0 0 1026.7 1026.7 0.0
13/06:50am 11.1 11.2 10.3 95 0.4 CALM 0 0 0 0 1026.6 1026.6 0.0
13/06:30am 10.8 10.9 10.0 95 0.4 CALM 0 0 0 0 1026.4 1026.4 0.0
13/06:16am 10.7 10.7 9.9 95 0.4 CALM 0 0 0 0 1026.4 1026.4 0.0
13/06:00am 10.8 10.9 10.0 95 0.4 CALM 0 0 0 0 1026.2 1026.2 0.0
13/05:30am 10.9 11.0 10.1 95 0.4 CALM 0 0 0 0 1025.8 1025.8 0.0
13/05:00am 10.8 10.9 10.0 95 0.4 CALM 0 0 0 0 1025.4 1025.4 0.0
13/04:30am 10.7 10.7 9.9 95 0.4 CALM 0 0 0 0 1024.9 1024.9 0.0
13/04:00am 10.6 10.6 9.8 95 0.4 CALM 0 0 0 0 1024.7 1024.7 0.0
13/03:30am 10.5 10.5 9.7 95 0.4 CALM 0 0 0 0 1025.1 1025.1 0.0
13/03:00am 10.5 10.5 9.7 95 0.4 CALM 0 0 0 0 1025.2 1025.2 0.0
13/02:30am 10.5 10.5 9.7 95 0.4 CALM 0 0 0 0 1025.5 1025.5 0.0
13/02:00am 10.6 10.6 9.8 95 0.4 CALM 0 0 0 0 1025.9 1025.9 0.0
13/01:35am 10.6 10.2 9.8 95 0.4 WSW 2 7 1 4 1026.1 1026.1 0.0
13/01:30am 10.6 9.5 9.8 95 0.4 WSW 6 11 3 6 1026.2 1026.2 0.0
13/01:00am 10.8 9.5 9.9 94 0.5 WSW 7 11 4 6 1026.4 1026.4 0.0
13/12:30am 11.0 9.4 10.1 94 0.5 S 9 13 5 7 1026.5 1026.5 0.0
13/12:00am 11.0 9.4 10.1 94 0.5 SSW 9 13 5 7 1026.5 1026.5 0.0

Other formats

Comma delimited format used in spreadsheet applications
http://www.bom.gov.au/fwo/IDS60801/IDS60801.95807.axf

JavaScript Object Notation format (JSON) in row-major order
http://www.bom.gov.au/fwo/IDS60801/IDS60801.95807.json

Data quality

Most of these data are generated automatically and are frequently updated. Quality checks on data are not normally performed. It is possible for incorrect values to appear. Refer to information at About Latest Weather Observations and please check the disclaimer before using these data.